createdAt,value
2018-05-29T00:00:14.402Z,77.42
2018-05-29T00:00:54.893Z,77.51
2018-05-29T00:01:35.374Z,77.03
2018-05-29T00:02:15.864Z,77.61
2018-05-29T00:02:56.381Z,77.42
2018-05-29T00:03:36.878Z,77.61
2018-05-29T00:04:17.349Z,77.22
2018-05-29T00:04:57.850Z,77.32
2018-05-29T00:05:38.352Z,77.42
2018-05-29T00:06:18.884Z,77.61
2018-05-29T00:06:59.328Z,77.9
2018-05-29T00:07:39.824Z,77.8
2018-05-29T00:08:20.386Z,78.19
2018-05-29T00:09:00.879Z,77.61
2018-05-29T00:09:45.220Z,78.29
2018-05-29T00:10:25.740Z,77.8
2018-05-29T00:11:06.217Z,77.8
2018-05-29T00:11:46.743Z,77.7
2018-05-29T00:12:27.263Z,77.8
2018-05-29T00:13:07.749Z,77.42
2018-05-29T00:13:48.238Z,77.03
2018-05-29T00:14:28.739Z,76.93
2018-05-29T00:15:09.283Z,77.61
2018-05-29T00:15:49.760Z,77.32
2018-05-29T00:16:30.269Z,77.7
2018-05-29T00:17:10.819Z,78.09
2018-05-29T00:17:51.329Z,77.22
2018-05-29T00:18:31.853Z,77.9
2018-05-29T00:19:12.296Z,77.51
2018-05-29T00:19:52.831Z,77.61
2018-05-29T00:20:33.315Z,77.9
2018-05-29T00:21:13.833Z,77.42
2018-05-29T00:21:54.290Z,77.32
2018-05-29T00:22:34.780Z,77.51
2018-05-29T00:23:15.294Z,77.96
2018-05-29T00:23:55.821Z,77.22
2018-05-29T00:24:36.290Z,77.61
2018-05-29T00:25:16.801Z,78
2018-05-29T00:25:57.260Z,76.74
2018-05-29T00:26:37.751Z,77.86
2018-05-29T00:27:18.273Z,77.57
2018-05-29T00:27:58.774Z,78.05
2018-05-29T00:28:39.227Z,77.76
2018-05-29T00:29:19.713Z,77.76
2018-05-29T00:30:00.268Z,78.15
2018-05-29T00:30:40.782Z,78.25
2018-05-29T00:31:21.308Z,78.25
2018-05-29T00:32:01.774Z,78.34
2018-05-29T00:32:42.267Z,77.86
2018-05-29T00:33:22.772Z,78.34
2018-05-29T00:34:03.282Z,77.67
2018-05-29T00:34:43.762Z,77.76
2018-05-29T00:35:24.289Z,78.05
2018-05-29T00:36:04.781Z,78.15
2018-05-29T00:36:45.317Z,77.57
2018-05-29T00:37:25.777Z,77.67
2018-05-29T00:38:06.307Z,78.05
2018-05-29T00:38:46.777Z,77.86
2018-05-29T00:39:27.282Z,77.76
2018-05-29T00:40:07.740Z,77.86
2018-05-29T00:40:48.246Z,77.86
2018-05-29T00:41:28.734Z,78.05
2018-05-29T00:42:09.267Z,77.96
2018-05-29T00:42:49.795Z,77.86
2018-05-29T00:43:30.243Z,77.67
2018-05-29T00:44:10.732Z,77.76
2018-05-29T00:44:51.273Z,77.96
2018-05-29T00:45:31.755Z,77.67
2018-05-29T00:46:12.219Z,78.15
2018-05-29T00:46:52.738Z,77.96
2018-05-29T00:47:33.219Z,77.96
2018-05-29T00:48:13.709Z,78.25
2018-05-29T00:48:54.220Z,78.99
2018-05-29T00:49:34.683Z,78.59
2018-05-29T00:50:15.208Z,78.5
2018-05-29T00:50:55.688Z,79.08
2018-05-29T00:51:36.177Z,78.99
2018-05-29T00:52:16.675Z,79.08
2018-05-29T00:52:57.228Z,79.08
2018-05-29T00:53:37.719Z,78.69
2018-05-29T00:54:18.283Z,78.31
2018-05-29T00:54:58.757Z,78.41
2018-05-29T00:55:39.237Z,77.53
2018-05-29T00:56:19.736Z,77.92
2018-05-29T00:57:00.287Z,77.82
2018-05-29T00:57:40.765Z,78.41
2018-05-29T00:58:21.203Z,78.5
2018-05-29T00:59:01.708Z,78.79
2018-05-29T00:59:42.211Z,78.69
2018-05-29T01:00:22.672Z,78.56
2018-05-29T01:01:03.146Z,78.69
2018-05-29T01:01:43.626Z,78.31
2018-05-29T01:02:24.131Z,78.94
2018-05-29T01:03:04.723Z,79.04
2018-05-29T01:03:45.229Z,79.24
2018-05-29T01:04:25.724Z,80.11
2018-05-29T01:05:06.233Z,79.33
2018-05-29T01:05:46.728Z,80.2
2018-05-29T01:06:27.329Z,79.91
2018-05-29T01:07:07.830Z,80.3
2018-05-29T01:07:48.331Z,80.11
2018-05-29T01:08:28.797Z,79.91
2018-05-29T01:09:09.300Z,80.88
2018-05-29T01:09:49.799Z,80.79
2018-05-29T01:10:30.328Z,80.59
2018-05-29T01:11:10.876Z,81.37
2018-05-29T01:11:51.343Z,81.23
2018-05-29T01:12:31.791Z,81.13
2018-05-29T01:13:12.323Z,82.04
2018-05-29T01:13:52.820Z,81.85
2018-05-29T01:14:33.261Z,82.23
2018-05-29T01:15:13.791Z,82.04
2018-05-29T01:15:54.267Z,82.23
2018-05-29T01:16:34.775Z,81.85
2018-05-29T01:17:15.242Z,82.33
2018-05-29T01:17:55.746Z,82.43
2018-05-29T01:18:36.232Z,82.33
2018-05-29T01:19:16.744Z,82.81
2018-05-29T01:19:57.208Z,82.53
2018-05-29T01:20:37.751Z,83.06
2018-05-29T01:21:18.237Z,83.01
2018-05-29T01:21:58.726Z,82.91
2018-05-29T01:22:39.259Z,82.62
2018-05-29T01:23:19.682Z,82.81
2018-05-29T01:24:00.195Z,82.62
2018-05-29T01:24:40.682Z,83.26
2018-05-29T01:25:21.213Z,83.88
2018-05-29T01:26:01.688Z,83.84
2018-05-29T01:26:42.186Z,83.84
2018-05-29T01:27:22.680Z,83.36
2018-05-29T01:28:03.198Z,83.55
2018-05-29T01:28:43.672Z,83.84
2018-05-29T01:29:24.176Z,83.74
2018-05-29T01:30:04.659Z,84.32
2018-05-29T01:30:45.193Z,84.13
2018-05-29T01:31:25.666Z,84.52
2018-05-29T01:32:06.150Z,84.52
2018-05-29T01:32:46.612Z,84.71
2018-05-29T01:33:27.150Z,85
2018-05-29T01:34:07.616Z,85
2018-05-29T01:34:48.167Z,85.73
2018-05-29T01:35:28.652Z,85.83
2018-05-29T01:36:09.121Z,85.83
2018-05-29T01:36:49.659Z,85.83
2018-05-29T01:37:30.114Z,85.44
2018-05-29T01:38:10.612Z,85.83
2018-05-29T01:38:51.132Z,88.92
2018-05-29T01:39:31.657Z,87.23
2018-05-29T01:40:12.593Z,85.77
2018-05-29T01:40:53.135Z,85.97
2018-05-29T01:41:33.603Z,85.77
2018-05-29T01:42:14.116Z,85.77
2018-05-29T01:42:54.583Z,85.87
2018-05-29T01:43:35.114Z,85.73
2018-05-29T01:44:15.569Z,86.02
2018-05-29T01:44:56.059Z,86.65
2018-05-29T01:45:36.593Z,86.02
2018-05-29T01:46:17.052Z,86.89
2018-05-29T01:46:57.580Z,86.99
2018-05-29T01:47:38.051Z,86.69
2018-05-29T01:48:18.593Z,86.6
2018-05-29T01:48:59.051Z,86.31
2018-05-29T01:49:39.504Z,86.51
2018-05-29T01:50:20.070Z,86.55
2018-05-29T01:51:00.513Z,86.74
2018-05-29T01:51:40.991Z,86.55
2018-05-29T01:52:21.523Z,86.83
2018-05-29T01:53:01.989Z,86.45
2018-05-29T01:53:42.501Z,86.35
2018-05-29T01:54:23.013Z,86.55
2018-05-29T01:55:03.467Z,86.74
2018-05-29T01:55:43.983Z,86.35
2018-05-29T01:56:24.441Z,86.25
2018-05-29T01:57:04.967Z,86.55
2018-05-29T01:57:45.456Z,87.03
2018-05-29T01:58:25.938Z,86.74
2018-05-29T01:59:06.442Z,87.57
2018-05-29T01:59:46.874Z,87.66
2018-05-29T02:00:27.417Z,87.85
2018-05-29T02:01:07.912Z,88.24
2018-05-29T02:01:48.392Z,88.24
2018-05-29T02:02:28.879Z,88.15
2018-05-29T02:03:09.353Z,87.76
2018-05-29T02:03:49.846Z,87.76
2018-05-29T02:04:30.393Z,87.85
2018-05-29T02:05:10.863Z,87.76
2018-05-29T02:05:51.399Z,87.76
2018-05-29T02:06:31.840Z,87.85
2018-05-29T02:07:12.384Z,87.76
2018-05-29T02:07:52.881Z,88.43
2018-05-29T02:08:33.339Z,88.53
2018-05-29T02:09:13.878Z,88.19
2018-05-29T02:09:54.359Z,88.73
2018-05-29T02:10:34.895Z,88.05
2018-05-29T02:11:15.441Z,88.15
2018-05-29T02:11:55.902Z,88.34
2018-05-29T02:12:36.412Z,88.63
2018-05-29T02:13:16.938Z,88.92
2018-05-29T02:13:57.401Z,88.43
2018-05-29T02:14:38.442Z,88.43
2018-05-29T02:15:18.900Z,88.53
2018-05-29T02:15:59.487Z,89.01
2018-05-29T02:16:39.981Z,89.4
2018-05-29T02:17:20.425Z,89.59
2018-05-29T02:18:00.971Z,89.31
2018-05-29T02:18:41.467Z,89.4
2018-05-29T02:19:21.955Z,88.73
2018-05-29T02:20:02.395Z,88.63
2018-05-29T02:20:42.950Z,88.24
2018-05-29T02:21:23.760Z,88.34
2018-05-29T02:22:04.261Z,88.34
2018-05-29T02:22:44.778Z,88.63
2018-05-29T02:23:25.242Z,88.92
2018-05-29T02:24:05.733Z,89.59
2018-05-29T02:24:46.252Z,89.59
2018-05-29T02:25:26.734Z,89.5
2018-05-29T02:26:07.251Z,89.79
2018-05-29T02:26:47.772Z,89.31
2018-05-29T02:27:28.228Z,89.5
2018-05-29T02:28:08.750Z,89.5
2018-05-29T02:28:49.239Z,89.59
2018-05-29T02:29:29.766Z,89.55
2018-05-29T02:30:10.224Z,89.75
2018-05-29T02:30:50.795Z,89.75
2018-05-29T02:31:31.248Z,90.33
2018-05-29T02:32:11.732Z,90.13
2018-05-29T02:32:52.212Z,89.75
2018-05-29T02:33:32.713Z,89.55
2018-05-29T02:34:13.178Z,89.26
2018-05-29T02:34:57.286Z,89.17
2018-05-29T02:35:37.858Z,89.26
2018-05-29T02:36:18.308Z,89.4
2018-05-29T02:36:58.860Z,88.82
2018-05-29T02:37:39.339Z,88.78
2018-05-29T02:38:19.892Z,88.59
2018-05-29T02:39:00.374Z,89.45
2018-05-29T02:39:40.890Z,89.26
2018-05-29T02:40:21.346Z,89.17
2018-05-29T02:41:01.888Z,89.45
2018-05-29T02:41:42.332Z,89.36
2018-05-29T02:42:22.825Z,88.68
2018-05-29T02:43:03.345Z,88.87
2018-05-29T02:43:43.836Z,89.17
2018-05-29T02:44:24.360Z,89.26
2018-05-29T02:45:04.835Z,89.45
2018-05-29T02:45:45.337Z,88.97
2018-05-29T02:46:25.811Z,89.45
2018-05-29T02:47:06.345Z,90.03
2018-05-29T02:47:46.806Z,89.26
2018-05-29T02:48:27.330Z,89.17
2018-05-29T02:49:07.791Z,89.55
2018-05-29T02:49:48.268Z,89.07
2018-05-29T02:50:28.780Z,89.26
2018-05-29T02:51:09.326Z,89.26
2018-05-29T02:51:49.795Z,89.65
2018-05-29T02:52:30.242Z,89.36
2018-05-29T02:53:10.779Z,89.84
2018-05-29T02:53:51.252Z,89.55
2018-05-29T02:54:31.785Z,89.17
2018-05-29T02:55:12.304Z,89.17
2018-05-29T02:55:52.731Z,89.17
2018-05-29T02:56:33.229Z,89.45
2018-05-29T02:57:13.704Z,89.26
2018-05-29T02:57:54.211Z,89.55
2018-05-29T02:58:34.704Z,89.84
2018-05-29T02:59:15.200Z,89.65
2018-05-29T02:59:55.640Z,89.26
2018-05-29T03:00:36.229Z,89.55
2018-05-29T03:01:16.765Z,89.26
2018-05-29T03:01:57.212Z,89.26
2018-05-29T03:02:37.698Z,89.55
2018-05-29T03:03:18.725Z,88.59
2018-05-29T03:03:59.166Z,89.17
2018-05-29T03:04:39.724Z,88.39
2018-05-29T03:05:20.161Z,88.39
2018-05-29T03:06:00.683Z,88.49
2018-05-29T03:06:41.260Z,88.49
2018-05-29T03:07:21.702Z,88.49
2018-05-29T03:08:02.214Z,88.59
2018-05-29T03:08:42.710Z,88.59
2018-05-29T03:09:23.176Z,88.59
2018-05-29T03:10:03.684Z,88.39
2018-05-29T03:10:44.200Z,88.2
2018-05-29T03:11:24.656Z,88.29
2018-05-29T03:12:05.146Z,88.39
2018-05-29T03:12:45.664Z,88.59
2018-05-29T03:13:26.285Z,88.68
2018-05-29T03:14:06.780Z,88.2
2018-05-29T03:14:47.250Z,88.59
2018-05-29T03:15:27.742Z,88.59
2018-05-29T03:16:08.266Z,88.49
2018-05-29T03:16:48.792Z,88.68
2018-05-29T03:17:29.242Z,88.49
2018-05-29T03:18:09.736Z,88.29
2018-05-29T03:18:50.281Z,88.59
2018-05-29T03:19:30.802Z,88.68
2018-05-29T03:20:11.303Z,89.31
2018-05-29T03:20:51.807Z,89.26
2018-05-29T03:21:32.273Z,88.59
2018-05-29T03:22:12.778Z,88.49
2018-05-29T03:22:53.435Z,88.68
2018-05-29T03:23:33.949Z,88.78
2018-05-29T03:24:14.437Z,88.68
2018-05-29T03:24:54.936Z,88.68
2018-05-29T03:25:35.469Z,88.49
2018-05-29T03:26:15.933Z,88.25
2018-05-29T03:26:56.473Z,88.35
2018-05-29T03:27:36.887Z,88.29
2018-05-29T03:28:17.398Z,88.54
2018-05-29T03:28:57.920Z,88.78
2018-05-29T03:29:38.387Z,88.64
2018-05-29T03:30:18.839Z,88.49
2018-05-29T03:30:59.369Z,88.29
2018-05-29T03:31:39.837Z,88.2
2018-05-29T03:32:20.367Z,88.45
2018-05-29T03:33:00.830Z,88.29
2018-05-29T03:33:41.348Z,88.29
2018-05-29T03:34:21.845Z,88.93
2018-05-29T03:35:02.291Z,88.54
2018-05-29T03:35:42.826Z,88.93
2018-05-29T03:36:23.591Z,88.45
2018-05-29T03:37:04.041Z,88.15
2018-05-29T03:37:44.490Z,88.45
2018-05-29T03:38:25.041Z,88.45
2018-05-29T03:39:05.528Z,88.49
2018-05-29T03:39:46.000Z,87.91
2018-05-29T03:40:26.505Z,88.29
2018-05-29T03:41:06.994Z,88.39
2018-05-29T03:41:47.495Z,87.71
2018-05-29T03:42:28.013Z,88.1
2018-05-29T03:43:08.496Z,88.2
2018-05-29T03:43:48.952Z,88.64
2018-05-29T03:44:29.456Z,88.54
2018-05-29T03:45:09.932Z,88.45
2018-05-29T03:45:50.453Z,88.54
2018-05-29T03:46:30.957Z,88.29
2018-05-29T03:47:11.450Z,88.49
2018-05-29T03:47:51.923Z,87.81
2018-05-29T03:48:32.416Z,87.91
2018-05-29T03:49:13.054Z,87.62
2018-05-29T03:49:53.553Z,87.43
2018-05-29T03:50:34.064Z,87.62
2018-05-29T03:51:14.500Z,87.43
2018-05-29T03:51:55.005Z,88.01
2018-05-29T03:52:35.529Z,87.23
2018-05-29T03:53:16.072Z,87.81
2018-05-29T03:53:56.522Z,87.71
2018-05-29T03:54:37.035Z,87.52
2018-05-29T03:55:17.515Z,87.81
2018-05-29T03:55:57.971Z,87.71
2018-05-29T03:56:38.507Z,87.71
2018-05-29T03:57:19.991Z,87.33
2018-05-29T03:58:00.453Z,87.81
2018-05-29T03:58:40.960Z,87.81
2018-05-29T03:59:21.454Z,87.91
2018-05-29T04:00:01.966Z,87.81
2018-05-29T04:00:42.509Z,87.81
2018-05-29T04:01:22.940Z,87.91
2018-05-29T04:02:03.456Z,87.23
2018-05-29T04:02:44.026Z,87.43
2018-05-29T04:03:24.639Z,87.23
2018-05-29T04:04:05.176Z,87.43
2018-05-29T04:04:45.671Z,87.37
2018-05-29T04:05:26.125Z,87.52
2018-05-29T04:06:06.680Z,87.47
2018-05-29T04:06:47.123Z,87.62
2018-05-29T04:07:27.651Z,87.62
2018-05-29T04:08:08.101Z,87.62
2018-05-29T04:08:48.616Z,87.62
2018-05-29T04:09:29.170Z,87.52
2018-05-29T04:10:09.647Z,87.52
2018-05-29T04:10:50.177Z,87.52
2018-05-29T04:11:30.761Z,87.13
2018-05-29T04:12:11.177Z,87.18
2018-05-29T04:12:51.698Z,87.18
2018-05-29T04:13:32.278Z,87.18
2018-05-29T04:14:12.764Z,87.08
2018-05-29T04:14:53.274Z,87.37
2018-05-29T04:15:33.727Z,86.6
2018-05-29T04:16:14.287Z,87.23
2018-05-29T04:16:54.756Z,87.18
2018-05-29T04:17:35.224Z,87.18
2018-05-29T04:18:15.684Z,87.18
2018-05-29T04:18:56.255Z,87.52
2018-05-29T04:19:36.735Z,87.04
2018-05-29T04:20:17.279Z,87.57
2018-05-29T04:20:57.762Z,87.66
2018-05-29T04:21:38.261Z,87.37
2018-05-29T04:22:18.736Z,86.6
2018-05-29T04:22:59.243Z,86.89
2018-05-29T04:23:39.738Z,86.89
2018-05-29T04:24:20.263Z,86.79
2018-05-29T04:25:00.727Z,86.69
2018-05-29T04:25:41.244Z,86.51
2018-05-29T04:26:21.764Z,86.79
2018-05-29T04:27:02.221Z,86.99
2018-05-29T04:27:42.762Z,86.69
2018-05-29T04:28:23.276Z,86.79
2018-05-29T04:29:04.742Z,87.27
2018-05-29T04:29:45.307Z,86.79
2018-05-29T04:30:25.769Z,86.69
2018-05-29T04:31:06.247Z,86.89
2018-05-29T04:31:46.770Z,86.21
2018-05-29T04:32:27.241Z,86.41
2018-05-29T04:33:07.779Z,86.41
2018-05-29T04:33:48.261Z,86.31
2018-05-29T04:34:28.758Z,86.11
2018-05-29T04:35:09.281Z,86.79
2018-05-29T04:35:49.850Z,86.41
2018-05-29T04:36:30.284Z,86.89
2018-05-29T04:37:10.870Z,86.41
2018-05-29T04:37:51.337Z,86.02
2018-05-29T04:38:31.837Z,86.06
2018-05-29T04:39:12.326Z,86.02
2018-05-29T04:39:52.826Z,86.02
2018-05-29T04:40:33.330Z,85.48
2018-05-29T04:41:13.775Z,85.97
2018-05-29T04:41:54.302Z,86.06
2018-05-29T04:42:34.769Z,85.97
2018-05-29T04:43:15.281Z,86.06
2018-05-29T04:43:55.769Z,85.58
2018-05-29T04:44:36.266Z,85.77
2018-05-29T04:45:16.761Z,85.77
2018-05-29T04:45:57.232Z,85.58
2018-05-29T04:46:37.735Z,85.77
2018-05-29T04:47:18.204Z,85.68
2018-05-29T04:47:58.787Z,86.79
2018-05-29T04:48:39.260Z,86.6
2018-05-29T04:49:19.770Z,86.21
2018-05-29T04:50:00.284Z,86.6
2018-05-29T04:50:40.823Z,86.6
2018-05-29T04:51:21.284Z,86.11
2018-05-29T04:52:01.822Z,85.97
2018-05-29T04:52:42.287Z,86.16
2018-05-29T04:53:23.082Z,85.97
2018-05-29T04:54:03.628Z,86.06
2018-05-29T04:54:44.143Z,85.77
2018-05-29T04:55:25.544Z,85.58
2018-05-29T04:56:06.067Z,85.19
2018-05-29T04:56:46.568Z,85.29
2018-05-29T04:57:27.047Z,84.71
2018-05-29T04:58:07.544Z,84.8
2018-05-29T04:58:48.145Z,84.8
2018-05-29T04:59:28.595Z,84.75
2018-05-29T05:00:09.135Z,84.52
2018-05-29T05:00:49.631Z,84.8
2018-05-29T05:01:30.617Z,84.71
2018-05-29T05:02:11.124Z,84.42
2018-05-29T05:02:51.687Z,84.27
2018-05-29T05:03:32.137Z,84.08
2018-05-29T05:04:12.694Z,83.78
2018-05-29T05:04:53.178Z,83.15
2018-05-29T05:05:33.677Z,82.28
2018-05-29T05:06:14.230Z,82.08
2018-05-29T05:06:54.722Z,82.37
2018-05-29T05:07:35.220Z,81.6
2018-05-29T05:08:15.706Z,82.76
2018-05-29T05:08:56.197Z,82.28
2018-05-29T05:09:36.682Z,82.57
2018-05-29T05:10:17.237Z,82.37
2018-05-29T05:10:57.780Z,82.66
2018-05-29T05:11:38.309Z,82.66
2018-05-29T05:12:18.762Z,82.76
2018-05-29T05:12:59.507Z,82.66
2018-05-29T05:13:39.996Z,82.86
2018-05-29T05:14:20.575Z,82.86
2018-05-29T05:15:01.649Z,82.18
2018-05-29T05:15:41.521Z,82.47
2018-05-29T05:16:22.068Z,82.08
2018-05-29T05:17:02.625Z,82.86
2018-05-29T05:17:43.133Z,82.32
2018-05-29T05:18:23.608Z,82.37
2018-05-29T05:19:04.033Z,82.37
2018-05-29T05:19:44.551Z,88.18
2018-05-29T05:20:25.121Z,88.28
2018-05-29T05:21:05.623Z,89.48
2018-05-29T05:21:46.115Z,90.74
2018-05-29T05:22:26.621Z,92.29
2018-05-29T05:23:07.148Z,87.26
2018-05-29T05:23:47.620Z,87.74
2018-05-29T05:24:28.071Z,92.33
2018-05-29T05:25:08.601Z,88.03
2018-05-29T05:25:49.072Z,86.38
2018-05-29T05:26:29.609Z,88.81
2018-05-29T05:27:10.121Z,87.35
2018-05-29T05:27:50.577Z,86.29
2018-05-29T05:28:31.087Z,87.26
2018-05-29T05:29:11.559Z,86.77
2018-05-29T05:29:52.078Z,86.68
2018-05-29T05:30:32.572Z,92.1
2018-05-29T05:31:13.035Z,93.11
2018-05-29T05:31:53.539Z,92.1
2018-05-29T05:32:34.051Z,86.29
2018-05-29T05:33:14.603Z,87.93
2018-05-29T05:33:55.105Z,93.3
2018-05-29T05:34:35.632Z,93.11
2018-05-29T05:35:16.106Z,87.05
2018-05-29T05:35:56.606Z,85.99
2018-05-29T05:36:37.052Z,88.51
2018-05-29T05:37:17.588Z,90.06
2018-05-29T05:37:58.050Z,88.41
2018-05-29T05:38:38.568Z,87.34
2018-05-29T05:39:19.057Z,83.27
2018-05-29T05:39:59.607Z,83.65
2018-05-29T05:40:40.137Z,83.47
2018-05-29T05:41:20.661Z,83.17
2018-05-29T05:42:01.564Z,84.82
2018-05-29T05:42:42.032Z,83.95
2018-05-29T05:43:22.542Z,86.27
2018-05-29T05:44:02.978Z,87.73
2018-05-29T05:44:43.475Z,86.95
2018-05-29T05:45:23.976Z,83.02
2018-05-29T05:46:04.536Z,81.31
2018-05-29T05:46:44.959Z,82.82
2018-05-29T05:47:25.443Z,82.87
2018-05-29T05:48:05.949Z,82.48
2018-05-29T05:48:46.459Z,80.93
2018-05-29T05:49:27.004Z,81.31
2018-05-29T05:50:07.665Z,80.73
2018-05-29T05:50:48.153Z,84.09
2018-05-29T05:51:28.677Z,83.7
2018-05-29T05:52:09.137Z,81.47
2018-05-29T05:52:49.689Z,83.65
2018-05-29T05:53:30.203Z,85.02
2018-05-29T05:54:10.672Z,86.47
2018-05-29T05:54:51.213Z,85.21
2018-05-29T05:55:31.731Z,88.35
2018-05-29T05:56:12.312Z,87.73
2018-05-29T05:56:52.733Z,88.65
2018-05-29T05:57:33.258Z,89.47
2018-05-29T05:58:13.741Z,90.64
2018-05-29T05:58:54.219Z,89.03
2018-05-29T05:59:34.714Z,89.56
2018-05-29T06:00:15.286Z,91.21
2018-05-29T06:00:55.762Z,91.02
2018-05-29T06:01:36.247Z,88.2
2018-05-29T06:02:16.761Z,88.4
2018-05-29T06:02:57.317Z,89.56
2018-05-29T06:03:37.821Z,91.25
2018-05-29T06:04:18.312Z,92.86
2018-05-29T06:04:58.790Z,90.77
2018-05-29T06:05:39.324Z,82.23
2018-05-29T06:06:19.885Z,85.67
2018-05-29T06:07:00.418Z,85.08
2018-05-29T06:07:40.865Z,79.49
2018-05-29T06:08:21.370Z,79.2
2018-05-29T06:09:01.909Z,77.64
2018-05-29T06:09:42.426Z,78.33
2018-05-29T06:10:22.952Z,87.12
2018-05-29T06:11:03.391Z,81.67
2018-05-29T06:11:43.930Z,81.57
2018-05-29T06:12:24.487Z,84.78
2018-05-29T06:13:05.012Z,86.63
2018-05-29T06:13:45.440Z,84.2
2018-05-29T06:14:25.987Z,88.28
2018-05-29T06:15:06.582Z,89.84
2018-05-29T06:15:47.033Z,91.29
2018-05-29T06:16:27.790Z,90.03
2018-05-29T06:17:08.243Z,87.21
2018-05-29T06:17:48.757Z,86.43
2018-05-29T06:18:29.220Z,80.11
2018-05-29T06:19:09.856Z,86.72
2018-05-29T06:19:50.408Z,87.3
2018-05-29T06:20:30.889Z,88.09
2018-05-29T06:21:11.488Z,88.03
2018-05-29T06:21:51.895Z,86.14
2018-05-29T06:22:32.735Z,87.21
2018-05-29T06:23:13.450Z,84.55
2018-05-29T06:23:54.378Z,83.57
2018-05-29T06:24:34.959Z,87.61
2018-05-29T06:25:15.792Z,88.29
2018-05-29T06:25:56.283Z,86.93
2018-05-29T06:26:36.836Z,85.43
2018-05-29T06:27:18.050Z,84.66
2018-05-29T06:27:58.700Z,80.83
2018-05-29T06:28:39.404Z,81.7
2018-05-29T06:29:21.703Z,84.12
2018-05-29T06:30:02.623Z,83.02
2018-05-29T06:30:43.106Z,81.95
2018-05-29T06:31:23.965Z,84.67
2018-05-29T06:32:04.725Z,82.44
2018-05-29T06:32:45.138Z,81.95
2018-05-29T06:33:25.739Z,81.57
2018-05-29T06:34:06.310Z,80.5
2018-05-29T06:34:46.825Z,81.95
2018-05-29T06:35:27.610Z,83.12
2018-05-29T06:36:08.397Z,83.12
2018-05-29T06:36:48.870Z,82.67
2018-05-29T06:37:29.509Z,81.85
2018-05-29T06:38:10.462Z,85.06
2018-05-29T06:38:51.192Z,86.85
2018-05-29T06:39:31.931Z,84.71
2018-05-29T06:40:12.181Z,83.49
2018-05-29T06:40:52.859Z,82.42
2018-05-29T06:41:33.308Z,82.18
2018-05-29T06:42:13.756Z,83.69
2018-05-29T06:42:54.251Z,83.97
2018-05-29T06:43:34.758Z,84.56
2018-05-29T06:44:15.312Z,82.03
2018-05-29T06:44:56.069Z,76.89
2018-05-29T06:45:36.798Z,79.18
2018-05-29T06:46:17.319Z,81.99
2018-05-29T06:46:58.757Z,84.52
2018-05-29T06:47:39.539Z,83
2018-05-29T06:48:20.038Z,84.85
2018-05-29T06:49:00.789Z,86.36
2018-05-29T06:49:41.299Z,87.04
2018-05-29T06:50:21.893Z,87.09
2018-05-29T06:51:02.382Z,84.57
2018-05-29T06:51:42.926Z,89.85
2018-05-29T06:52:24.456Z,91.31
2018-05-29T06:53:05.016Z,92.28
2018-05-29T06:53:45.432Z,92.47
2018-05-29T06:54:25.938Z,92.28
2018-05-29T06:55:06.396Z,84.57
2018-05-29T06:55:46.891Z,84.86
2018-05-29T06:56:27.840Z,86.51
2018-05-29T06:57:08.358Z,92.04
2018-05-29T06:57:48.818Z,92.43
2018-05-29T06:58:29.354Z,88.06
2018-05-29T06:59:09.845Z,86.9
2018-05-29T06:59:50.337Z,81.95
2018-05-29T07:00:30.827Z,87.77
2018-05-29T07:01:11.393Z,90.1
2018-05-29T07:01:51.894Z,94.02
2018-05-29T07:02:32.538Z,93.93
2018-05-29T07:03:13.039Z,92.57
2018-05-29T07:03:53.572Z,95.39
2018-05-29T07:04:34.038Z,87.91
2018-05-29T07:05:14.629Z,94.8
2018-05-29T07:05:55.092Z,96.16
2018-05-29T07:06:35.671Z,91.55
2018-05-29T07:07:16.088Z,85.53
2018-05-29T07:07:56.566Z,91.94
2018-05-29T07:08:38.319Z,92.91
2018-05-29T07:09:18.814Z,93.49
2018-05-29T07:09:59.326Z,82.52
2018-05-29T07:10:40.371Z,92.13
2018-05-29T07:11:21.246Z,94.36
2018-05-29T07:12:01.822Z,94.95
2018-05-29T07:12:42.623Z,94.51
2018-05-29T07:13:23.264Z,93.92
2018-05-29T07:14:03.977Z,89.61
2018-05-29T07:14:44.599Z,89.65
2018-05-29T07:15:25.499Z,91.78
2018-05-29T07:16:06.371Z,90.77
2018-05-29T07:16:46.993Z,91.4
2018-05-29T07:17:27.908Z,85.77
2018-05-29T07:18:08.451Z,84.85
2018-05-29T07:18:48.787Z,86.79
2018-05-29T07:19:30.913Z,83.63
2018-05-29T07:20:10.762Z,83.72
2018-05-29T07:20:52.012Z,81.68
2018-05-29T07:21:32.561Z,82.79
2018-05-29T07:22:13.049Z,83.76
2018-05-29T07:22:53.677Z,82.5
2018-05-29T07:23:35.145Z,83.67
2018-05-29T07:24:17.399Z,80.76
2018-05-29T07:24:57.833Z,83.96
2018-05-29T07:25:38.732Z,83.24
2018-05-29T07:26:19.148Z,82.37
2018-05-29T07:26:59.804Z,80.81
2018-05-29T07:27:40.659Z,81.1
2018-05-29T07:28:21.459Z,80.81
2018-05-29T07:29:02.624Z,81.49
2018-05-29T07:29:43.775Z,83.92
2018-05-29T07:30:25.027Z,83.86
2018-05-29T07:31:05.477Z,84.11
2018-05-29T07:31:46.138Z,83.24
2018-05-29T07:32:26.526Z,77.8
2018-05-29T07:33:07.089Z,79.45
2018-05-29T07:33:47.802Z,81.53
2018-05-29T07:34:28.550Z,83.86
2018-05-29T07:35:08.908Z,83.28
2018-05-29T07:35:49.971Z,83.18
2018-05-29T07:36:30.296Z,81.73
2018-05-29T07:37:11.515Z,83.76
2018-05-29T07:37:52.739Z,85.18
2018-05-29T07:38:32.858Z,87.75
2018-05-29T07:39:13.654Z,84.01
2018-05-29T07:39:54.390Z,87.03
2018-05-29T07:40:35.244Z,88.19
2018-05-29T07:41:15.936Z,87.9
2018-05-29T07:41:57.724Z,88.97
2018-05-29T07:42:38.437Z,83.39
2018-05-29T07:43:19.166Z,88.15
2018-05-29T07:44:00.135Z,92.08
2018-05-29T07:44:40.598Z,91.78
2018-05-29T07:45:21.032Z,87.32
2018-05-29T07:46:02.562Z,91.11
2018-05-29T07:46:43.777Z,91.88
2018-05-29T07:47:24.717Z,89.89
2018-05-29T07:48:05.223Z,88.53
2018-05-29T07:48:45.465Z,87.85
2018-05-29T07:49:26.506Z,89.59
2018-05-29T07:50:06.348Z,88.04
2018-05-29T07:50:47.387Z,88.53
2018-05-29T07:51:28.367Z,90.23
2018-05-29T07:52:08.808Z,89.59
2018-05-29T07:52:49.341Z,83.53
2018-05-29T07:53:30.193Z,83.04
2018-05-29T07:54:10.853Z,86.93
2018-05-29T07:54:51.329Z,88.62
2018-05-29T07:55:31.806Z,87.75
2018-05-29T07:56:12.520Z,87.07
2018-05-29T07:56:52.889Z,88.14
2018-05-29T07:57:33.556Z,87.12
2018-05-29T07:58:13.941Z,87.46
2018-05-29T07:58:54.586Z,85.52
2018-05-29T07:59:35.070Z,85.86
2018-05-29T08:00:15.559Z,82.89
2018-05-29T08:00:56.291Z,83.09
2018-05-29T08:01:37.123Z,82.99
2018-05-29T08:02:17.945Z,85.22
2018-05-29T08:02:58.197Z,85.52
2018-05-29T08:03:38.887Z,86
2018-05-29T08:04:19.425Z,87.51
2018-05-29T08:04:59.858Z,86.74
2018-05-29T08:05:40.403Z,84.25
2018-05-29T08:06:20.882Z,86
2018-05-29T08:07:01.562Z,86.68
2018-05-29T08:07:42.484Z,85.81
2018-05-29T08:08:24.062Z,87.75
2018-05-29T08:09:05.020Z,87.95
2018-05-29T08:09:45.413Z,88.04
2018-05-29T08:10:26.209Z,84.79
2018-05-29T08:11:06.868Z,81.92
2018-05-29T08:11:47.645Z,85.03
2018-05-29T08:12:28.165Z,83.96
2018-05-29T08:13:09.493Z,85.13
2018-05-29T08:13:50.108Z,84.31
2018-05-29T08:14:31.279Z,80.85
2018-05-29T08:15:12.565Z,81.53
2018-05-29T08:15:53.280Z,84.55
2018-05-29T08:16:33.694Z,84.06
2018-05-29T08:17:14.222Z,84.97
2018-05-29T08:17:55.158Z,82.64
2018-05-29T08:18:38.719Z,83.03
2018-05-29T08:19:19.308Z,80.83
2018-05-29T08:19:59.886Z,81.81
2018-05-29T08:20:40.468Z,78.89
2018-05-29T08:21:21.268Z,77.82
2018-05-29T08:22:01.779Z,78.01
2018-05-29T08:22:42.267Z,78.01
2018-05-29T08:23:22.809Z,79.28
2018-05-29T08:24:03.313Z,79.28
2018-05-29T08:24:44.102Z,78.94
2018-05-29T08:25:24.533Z,76.55
2018-05-29T08:26:05.991Z,78.3
2018-05-29T08:26:47.201Z,76.75
2018-05-29T08:27:29.716Z,76.65
2018-05-29T08:28:09.788Z,79.66
2018-05-29T08:28:51.086Z,81.61
2018-05-29T08:29:31.814Z,82.87
2018-05-29T08:30:12.301Z,82.54
2018-05-29T08:30:52.785Z,80.35
2018-05-29T08:31:33.264Z,81.81
2018-05-29T08:32:13.906Z,83.71
2018-05-29T08:32:55.440Z,82.74
2018-05-29T08:33:35.878Z,82.74
2018-05-29T08:34:17.255Z,83.51
2018-05-29T08:34:57.472Z,81.86
2018-05-29T08:35:38.000Z,82.6
2018-05-29T08:36:18.616Z,83.18
2018-05-29T08:36:59.119Z,83.28
2018-05-29T08:37:39.645Z,83.18
2018-05-29T08:38:20.199Z,79.1
2018-05-29T08:39:00.654Z,80.76
2018-05-29T08:39:41.196Z,82.45
2018-05-29T08:40:21.635Z,82.93
2018-05-29T08:41:02.187Z,82.74
2018-05-29T08:41:42.641Z,82.06
2018-05-29T08:42:23.265Z,80.6
2018-05-29T08:43:03.666Z,80.11
2018-05-29T08:43:44.231Z,81.86
2018-05-29T08:44:24.713Z,80.11